LJMB/MBX METAR and TAF weather

Enter ICAO airport designator
Station Type Date Time Source
LJMB METAR 2019/12/08 07:00 UTC NOAA

LJMB 080700Z VRB01KT 7000 NSC M04/M05 Q1018


Station Type Date Time Source
LJMB Decoded METAR 2019/12/08 07:00 UTC NOAA

Maribor / Slivnica, Slovenia (LJMB) 46-29N 015-41E 265M
Dec 08, 2019 - 02:00 AM EST / 2019.12.08 0700 UTC
Wind: Variable at 1 MPH (1 KT):0
Visibility: 4 mile(s):0
Temperature: 24 F (-4 C)
Dew Point: 23 F (-5 C)
Relative Humidity: 92%
Pressure (altimeter): 30.06 in. Hg (1018 hPa)
ob: LJMB 080700Z VRB01KT 7000 NSC M04/M05 Q1018
cycle: 7

Station Type Date Time Source
LJMB TAF 2019/12/08 06:05 UTC NOAA

TAF LJMB 080500Z 0806/0906 14003KT 0300 FZFG VV002
TEMPO 0806/0809 2000 BR OVC003
BECMG 0810/0812 19005KT CAVOK
TEMPO 0813/0903 20010KT PROB40
TEMPO 0903/0906 0300 FZFG VV001

Example: see airport list